Time;durP1;ratioP1;P1;durP2;ratioP2;P2;SDS_P1;SDS_P2;PMS_P1;PMS_P2;Temp;Humidity;BMP_temperature;BMP_pressure;BME280_temperature;BME280_humidity;BME280_pressure;Samples;Min_cycle;Max_cycle;Signal;HPM_P1;HPM_P2
2020/12/17 00:00:20;;;;;;;9.20;4.07;;;;;;;;;;5025959;28;20045;-60
2020/12/17 00:02:46;;;;;;;9.13;3.97;;;;;;;;;;5007319;28;20046;-59
2020/12/17 00:05:13;;;;;;;8.20;3.95;;;;;;;;;;5006798;28;20042;-56
2020/12/17 00:07:54;;;;;;;9.65;4.53;;;;;;;;;;5009122;28;20051;-58
2020/12/17 00:10:20;;;;;;;8.60;3.65;;;;;;;;;;5026770;28;20041;-59
2020/12/17 00:12:50;;;;;;;8.52;4.05;;;;;;;;;;5023015;28;20055;-59
2020/12/17 00:15:17;;;;;;;7.68;3.42;;;;;;;;;;5026375;28;20049;-60
2020/12/17 00:17:48;;;;;;;10.85;4.60;;;;;;;;;;5017399;28;20034;-61
2020/12/17 00:20:15;;;;;;;10.32;4.50;;;;;;;;;;5004642;28;20041;-60
2020/12/17 00:22:41;;;;;;;12.40;4.75;;;;;;;;;;5004848;28;20038;-58
2020/12/17 00:25:08;;;;;;;7.85;3.80;;;;;;;;;;5004473;28;20061;-58
2020/12/17 00:27:34;;;;;;;8.90;4.07;;;;;;;;;;5004696;28;20046;-59
2020/12/17 00:30:00;;;;;;;11.82;4.18;;;;;;;;;;5001826;28;20053;-59
2020/12/17 00:32:27;;;;;;;7.05;3.47;;;;;;;;;;5003107;28;20050;-61
2020/12/17 00:34:53;;;;;;;8.98;4.13;;;;;;;;;;5016687;28;20041;-58
2020/12/17 00:37:34;;;;;;;9.13;4.32;;;;;;;;;;5026694;28;20034;-61
2020/12/17 00:40:01;;;;;;;10.05;4.82;;;;;;;;;;5006035;28;20049;-61
2020/12/17 00:42:27;;;;;;;9.85;4.65;;;;;;;;;;5005717;28;20046;-61
2020/12/17 00:44:53;;;;;;;10.43;3.88;;;;;;;;;;5015669;28;20038;-58
2020/12/17 00:47:30;;;;;;;10.88;4.05;;;;;;;;;;5024747;28;20038;-61
2020/12/17 00:49:57;;;;;;;9.82;4.55;;;;;;;;;;5020655;28;20089;-58
2020/12/17 00:52:23;;;;;;;12.23;4.78;;;;;;;;;;5025350;28;20045;-60
2020/12/17 00:54:49;;;;;;;8.70;3.97;;;;;;;;;;5014055;28;20042;-59
2020/12/17 00:57:15;;;;;;;7.35;3.80;;;;;;;;;;5005150;28;20038;-59
2020/12/17 00:59:41;;;;;;;9.52;4.20;;;;;;;;;;5002222;28;20045;-60
2020/12/17 01:02:07;;;;;;;8.20;3.88;;;;;;;;;;5015936;28;20065;-59
2020/12/17 01:04:34;;;;;;;9.35;4.40;;;;;;;;;;5020182;28;20042;-61
2020/12/17 01:07:01;;;;;;;10.90;4.90;;;;;;;;;;5004467;28;20039;-59
2020/12/17 01:09:27;;;;;;;9.07;3.83;;;;;;;;;;5001982;28;20030;-62
2020/12/17 01:11:53;;;;;;;9.73;4.40;;;;;;;;;;5026224;28;20058;-61
2020/12/17 01:14:19;;;;;;;8.73;4.35;;;;;;;;;;5026124;28;20030;-59
2020/12/17 01:16:46;;;;;;;9.90;4.40;;;;;;;;;;5005916;28;20046;-61
2020/12/17 01:19:12;;;;;;;11.63;4.13;;;;;;;;;;5004342;28;20034;-60
2020/12/17 01:21:39;;;;;;;9.82;4.78;;;;;;;;;;5017233;28;20100;-59
2020/12/17 01:24:05;;;;;;;11.07;4.82;;;;;;;;;;5025003;28;20046;-59
2020/12/17 01:26:31;;;;;;;14.32;5.10;;;;;;;;;;5021761;28;20524;-62
2020/12/17 01:28:59;;;;;;;10.48;4.30;;;;;;;;;;5023858;28;20145;-59
2020/12/17 01:31:25;;;;;;;9.18;3.75;;;;;;;;;;5021602;28;20041;-61
2020/12/17 01:33:51;;;;;;;9.32;4.10;;;;;;;;;;5025578;28;20034;-60
2020/12/17 01:36:17;;;;;;;8.98;4.10;;;;;;;;;;5020951;28;20045;-58
2020/12/17 01:38:46;;;;;;;8.65;4.20;;;;;;;;;;5026950;28;20030;-59
2020/12/17 01:41:13;;;;;;;8.43;3.88;;;;;;;;;;5017147;28;20093;-57
2020/12/17 01:43:40;;;;;;;10.23;4.22;;;;;;;;;;5023584;28;20152;-59
2020/12/17 01:46:06;;;;;;;8.57;4.13;;;;;;;;;;5019389;28;20486;-59
2020/12/17 01:48:33;;;;;;;9.27;3.78;;;;;;;;;;5023716;28;20030;-59
2020/12/17 01:50:59;;;;;;;6.72;3.60;;;;;;;;;;5019736;28;20061;-60
2020/12/17 01:53:25;;;;;;;11.07;4.57;;;;;;;;;;5021309;28;20037;-58
2020/12/17 01:55:53;;;;;;;7.30;3.60;;;;;;;;;;5024904;28;20038;-56
2020/12/17 01:58:23;;;;;;;12.17;3.57;;;;;;;;;;5002862;28;20038;-58
2020/12/17 02:00:52;;;;;;;11.98;4.30;;;;;;;;;;5003768;28;20059;-62
2020/12/17 02:03:18;;;;;;;8.27;3.83;;;;;;;;;;5009865;28;20034;-60
2020/12/17 02:05:45;;;;;;;6.85;3.45;;;;;;;;;;5024230;28;20038;-62
2020/12/17 02:08:18;;;;;;;9.00;3.75;;;;;;;;;;5008964;28;20042;-59
2020/12/17 02:10:44;;;;;;;8.65;3.97;;;;;;;;;;5004261;28;20038;-62
2020/12/17 02:13:12;;;;;;;9.88;4.20;;;;;;;;;;5002127;28;20044;-64
2020/12/17 02:15:38;;;;;;;6.97;3.03;;;;;;;;;;5003660;28;20038;-61
2020/12/17 02:18:07;;;;;;;9.63;3.80;;;;;;;;;;5000050;28;20122;-60
2020/12/17 02:20:33;;;;;;;11.48;3.65;;;;;;;;;;5004182;28;20042;-61
2020/12/17 02:22:59;;;;;;;7.72;3.13;;;;;;;;;;5003067;28;20108;-60
2020/12/17 02:25:26;;;;;;;7.57;3.80;;;;;;;;;;5004547;28;20062;-62
2020/12/17 02:27:52;;;;;;;10.48;3.15;;;;;;;;;;4999998;28;20042;-57
2020/12/17 02:30:18;;;;;;;8.63;3.95;;;;;;;;;;5003672;28;20034;-61
2020/12/17 02:32:44;;;;;;;8.52;3.90;;;;;;;;;;5013009;28;20037;-59
2020/12/17 02:35:10;;;;;;;10.88;3.33;;;;;;;;;;5024107;28;20070;-60
2020/12/17 02:37:38;;;;;;;8.70;3.35;;;;;;;;;;5020921;28;20172;-59
2020/12/17 02:40:05;;;;;;;7.82;3.60;;;;;;;;;;5001497;28;20050;-58
2020/12/17 02:42:31;;;;;;;7.43;3.80;;;;;;;;;;5017827;28;20054;-60
2020/12/17 02:44:57;;;;;;;9.63;3.40;;;;;;;;;;5004083;28;20057;-60
2020/12/17 02:47:24;;;;;;;7.82;3.35;;;;;;;;;;5003238;28;20053;-59
2020/12/17 02:49:50;;;;;;;7.13;3.28;;;;;;;;;;4999024;28;20062;-60
2020/12/17 02:52:16;;;;;;;9.25;3.67;;;;;;;;;;5003797;28;20038;-60
2020/12/17 02:54:42;;;;;;;9.57;3.17;;;;;;;;;;5012558;28;20052;-61
2020/12/17 02:57:08;;;;;;;10.90;3.50;;;;;;;;;;5022808;28;20096;-60
2020/12/17 02:59:35;;;;;;;7.68;3.00;;;;;;;;;;5020005;28;20037;-59
2020/12/17 03:02:01;;;;;;;7.50;3.60;;;;;;;;;;5018747;28;20045;-59
2020/12/17 03:04:27;;;;;;;7.32;3.45;;;;;;;;;;5018466;28;20073;-59
2020/12/17 03:06:55;;;;;;;7.93;3.55;;;;;;;;;;5022121;28;20050;-58
2020/12/17 03:09:21;;;;;;;7.75;4.03;;;;;;;;;;5018107;28;20064;-59
2020/12/17 03:11:47;;;;;;;7.60;3.65;;;;;;;;;;5001898;28;20038;-59
2020/12/17 03:14:13;;;;;;;11.35;3.17;;;;;;;;;;5016603;28;20057;-57
2020/12/17 03:16:42;;;;;;;8.00;3.63;;;;;;;;;;5002064;28;20034;-59
2020/12/17 03:19:07;;;;;;;;;;;;;;;;;;5003374;28;20046;-59
2020/12/17 03:21:34;;;;;;;6.78;3.03;;;;;;;;;;4999183;28;19922;-57
2020/12/17 03:24:00;;;;;;;9.65;3.47;;;;;;;;;;5002655;28;20038;-62
2020/12/17 03:26:27;;;;;;;10.63;3.75;;;;;;;;;;5014191;28;20026;-60
2020/12/17 03:28:53;;;;;;;9.88;3.90;;;;;;;;;;5020163;28;20041;-59
2020/12/17 03:31:19;;;;;;;9.23;3.90;;;;;;;;;;5006825;28;20056;-58
2020/12/17 03:33:46;;;;;;;7.82;3.22;;;;;;;;;;5002172;28;20042;-60
2020/12/17 03:36:12;;;;;;;7.88;2.97;;;;;;;;;;4999708;28;20042;-58
2020/12/17 03:38:45;;;;;;;11.32;3.58;;;;;;;;;;5002420;28;20108;-60
2020/12/17 03:41:11;;;;;;;6.38;3.20;;;;;;;;;;5006149;28;20041;-60
2020/12/17 03:43:37;;;;;;;8.68;3.60;;;;;;;;;;5004060;28;20127;-59
2020/12/17 03:46:03;;;;;;;8.10;3.65;;;;;;;;;;5003351;28;20057;-58
2020/12/17 03:48:34;;;;;;;7.50;3.42;;;;;;;;;;5021930;28;20042;-57
2020/12/17 03:51:01;;;;;;;7.47;3.40;;;;;;;;;;5017087;28;20093;-60
2020/12/17 03:53:27;;;;;;;7.63;3.28;;;;;;;;;;5005467;28;20038;-58
2020/12/17 03:55:53;;;;;;;7.88;3.13;;;;;;;;;;5002896;28;20097;-58
2020/12/17 03:58:21;;;;;;;6.72;2.78;;;;;;;;;;5025182;28;20038;-58
2020/12/17 04:00:47;;;;;;;9.07;2.85;;;;;;;;;;5024099;28;20041;-61
2020/12/17 04:03:13;;;;;;;6.47;3.05;;;;;;;;;;5023424;28;20053;-58
2020/12/17 04:05:39;;;;;;;6.65;2.75;;;;;;;;;;5026155;28;20033;-62
2020/12/17 04:08:06;;;;;;;7.68;2.90;;;;;;;;;;5021868;28;20042;-62
2020/12/17 04:10:32;;;;;;;9.07;3.28;;;;;;;;;;5026084;28;20026;-58
2020/12/17 04:12:58;;;;;;;11.38;2.92;;;;;;;;;;5009304;28;20042;-60
2020/12/17 04:15:24;;;;;;;6.07;3.17;;;;;;;;;;5006716;28;20042;-59
2020/12/17 04:17:50;;;;;;;6.65;3.22;;;;;;;;;;5003884;28;20035;-59
2020/12/17 04:20:16;;;;;;;7.30;3.55;;;;;;;;;;5005139;28;20472;-58
2020/12/17 04:22:42;;;;;;;7.13;3.17;;;;;;;;;;5004062;28;20094;-57
2020/12/17 04:25:12;;;;;;;7.75;3.55;;;;;;;;;;5005987;28;20104;-61
2020/12/17 04:28:02;;;;;;;8.23;3.88;;;;;;;;;;5003119;28;20097;-61
2020/12/17 04:30:28;;;;;;;10.55;4.85;;;;;;;;;;5005498;28;20045;-58
2020/12/17 04:32:54;;;;;;;9.05;4.93;;;;;;;;;;5003228;28;20046;-58
2020/12/17 04:35:20;;;;;;;12.95;4.90;;;;;;;;;;5005664;28;20042;-60
2020/12/17 04:37:46;;;;;;;8.93;4.53;;;;;;;;;;5004694;28;20082;-60
2020/12/17 04:40:13;;;;;;;8.75;3.67;;;;;;;;;;5023478;28;20156;-61
2020/12/17 04:42:40;;;;;;;10.10;4.53;;;;;;;;;;5009964;28;20046;-61
2020/12/17 04:45:07;;;;;;;9.07;3.63;;;;;;;;;;5024723;28;20041;-61
2020/12/17 04:47:36;;;;;;;6.78;3.70;;;;;;;;;;5024288;28;20045;-61
2020/12/17 04:50:04;;;;;;;7.25;3.17;;;;;;;;;;5002455;28;20042;-59
2020/12/17 04:52:30;;;;;;;10.40;3.23;;;;;;;;;;5006023;28;20054;-59
2020/12/17 04:54:56;;;;;;;9.43;3.13;;;;;;;;;;5017415;28;20045;-58
2020/12/17 04:57:26;;;;;;;6.50;3.10;;;;;;;;;;5025236;28;20066;-58
2020/12/17 04:59:52;;;;;;;9.57;3.00;;;;;;;;;;5008205;28;20054;-61
2020/12/17 05:02:20;;;;;;;8.90;3.45;;;;;;;;;;5021622;28;20046;-61
2020/12/17 05:04:47;;;;;;;8.68;3.33;;;;;;;;;;5010795;28;20046;-61
2020/12/17 05:07:13;;;;;;;10.27;3.47;;;;;;;;;;5004889;28;20062;-61
2020/12/17 05:09:40;;;;;;;9.35;3.17;;;;;;;;;;5002302;28;20050;-61
2020/12/17 05:12:06;;;;;;;6.35;3.03;;;;;;;;;;5006396;28;20046;-60
2020/12/17 05:14:34;;;;;;;11.32;3.85;;;;;;;;;;5007404;28;20122;-57
2020/12/17 05:17:00;;;;;;;7.75;2.97;;;;;;;;;;5025412;28;20099;-58
2020/12/17 05:19:26;;;;;;;8.10;3.22;;;;;;;;;;5020301;28;20033;-58
2020/12/17 05:21:53;;;;;;;9.57;2.83;;;;;;;;;;5006289;28;20034;-58
2020/12/17 05:24:20;;;;;;;10.50;2.97;;;;;;;;;;5002980;28;20128;-58
2020/12/17 05:27:05;;;;;;;7.53;2.97;;;;;;;;;;5020644;28;20038;-55
2020/12/17 05:29:31;;;;;;;6.43;2.92;;;;;;;;;;4946006;28;20046;-59
2020/12/17 05:31:58;;;;;;;12.50;3.45;;;;;;;;;;4995813;28;20054;-59
2020/12/17 05:34:24;;;;;;;10.75;2.92;;;;;;;;;;5002523;28;20034;-59
2020/12/17 05:36:50;;;;;;;8.25;2.88;;;;;;;;;;5000747;28;20034;-59
2020/12/17 05:39:17;;;;;;;7.93;3.58;;;;;;;;;;5004228;28;20083;-59
2020/12/17 05:41:44;;;;;;;6.97;3.55;;;;;;;;;;5000878;28;20038;-59
2020/12/17 05:44:12;;;;;;;6.75;3.08;;;;;;;;;;5004652;28;20038;-60
2020/12/17 05:46:38;;;;;;;7.20;3.47;;;;;;;;;;5011919;28;20026;-59
2020/12/17 05:49:12;;;;;;;10.00;3.70;;;;;;;;;;5023837;28;20048;-58
2020/12/17 05:51:38;;;;;;;8.95;3.47;;;;;;;;;;5009810;28;20050;-57
2020/12/17 05:54:06;;;;;;;6.80;3.17;;;;;;;;;;5004360;28;20034;-58
2020/12/17 05:56:32;;;;;;;7.43;3.65;;;;;;;;;;5000936;28;20046;-58
2020/12/17 05:59:01;;;;;;;8.63;3.72;;;;;;;;;;5005132;28;20042;-55
2020/12/17 06:01:27;;;;;;;8.68;4.20;;;;;;;;;;4999219;28;20034;-56
2020/12/17 06:03:54;;;;;;;6.95;3.75;;;;;;;;;;5003098;28;20182;-59
2020/12/17 06:06:21;;;;;;;9.23;3.70;;;;;;;;;;4998307;28;20108;-59
2020/12/17 06:08:52;;;;;;;7.93;3.55;;;;;;;;;;5003744;28;20045;-59
2020/12/17 06:11:21;;;;;;;7.63;4.07;;;;;;;;;;5002119;28;20038;-59
2020/12/17 06:13:52;;;;;;;6.88;3.65;;;;;;;;;;5004766;28;20034;-61
2020/12/17 06:16:55;;;;;;;8.07;4.30;;;;;;;;;;5005209;28;20034;-59
2020/12/17 06:19:22;;;;;;;8.43;4.05;;;;;;;;;;4919473;29;20048;-62
2020/12/17 06:21:49;;;;;;;7.15;3.90;;;;;;;;;;4972840;28;20086;-59
2020/12/17 06:24:17;;;;;;;10.18;4.57;;;;;;;;;;5025262;28;20037;-62
2020/12/17 06:26:49;;;;;;;9.10;4.57;;;;;;;;;;5011841;28;20041;-60
2020/12/17 06:29:17;;;;;;;8.07;3.85;;;;;;;;;;5003523;28;20046;-60
2020/12/17 06:31:51;;;;;;;9.25;4.65;;;;;;;;;;5005744;28;20042;-58
2020/12/17 06:34:20;;;;;;;7.95;4.10;;;;;;;;;;5016355;28;20102;-62
2020/12/17 06:39:59;;;;;;;9.65;4.32;;;;;;;;;;4902922;29;20031;-59
2020/12/17 06:42:46;;;;;;;9.23;4.38;;;;;;;;;;4905309;28;20035;-58
2020/12/17 06:45:23;;;;;;;10.90;5.43;;;;;;;;;;5001793;28;20045;-57
2020/12/17 06:47:52;;;;;;;11.20;5.30;;;;;;;;;;5002175;28;20054;-60
2020/12/17 06:50:21;;;;;;;8.30;4.47;;;;;;;;;;5004253;28;20476;-61
2020/12/17 06:53:07;;;;;;;11.35;5.13;;;;;;;;;;5000111;28;20054;-59
2020/12/17 06:55:41;;;;;;;10.27;5.35;;;;;;;;;;5004001;28;20034;-59
2020/12/17 06:58:07;;;;;;;10.13;4.78;;;;;;;;;;5002751;28;20042;-58
2020/12/17 07:07:13;;;;;;;12.38;5.20;;;;;;;;;;4999095;28;20283;-63
2020/12/17 07:09:42;;;;;;;12.13;5.28;;;;;;;;;;5012279;28;20048;-60
2020/12/17 07:12:11;;;;;;;11.77;5.57;;;;;;;;;;5023456;28;20070;-58
2020/12/17 07:14:37;;;;;;;10.15;5.50;;;;;;;;;;5012317;28;20038;-58
2020/12/17 07:17:09;;;;;;;11.60;5.80;;;;;;;;;;5005228;28;20116;-57
2020/12/17 07:19:39;;;;;;;14.80;6.88;;;;;;;;;;5008494;28;20029;-58
2020/12/17 07:22:06;;;;;;;12.93;6.32;;;;;;;;;;5024996;28;20045;-58
2020/12/17 07:24:33;;;;;;;14.35;6.47;;;;;;;;;;5019080;28;20053;-59
2020/12/17 07:27:04;;;;;;;14.93;7.65;;;;;;;;;;5026358;28;20041;-58
2020/12/17 07:29:32;;;;;;;14.73;7.18;;;;;;;;;;5021701;28;20042;-59
2020/12/17 07:32:13;;;;;;;14.50;7.20;;;;;;;;;;5026597;28;20058;-58
2020/12/17 07:34:39;;;;;;;14.43;7.85;;;;;;;;;;5021000;28;20056;-58
2020/12/17 07:37:32;;;;;;;17.92;7.68;;;;;;;;;;5027973;28;20042;-58
2020/12/17 07:39:58;;;;;;;14.95;8.07;;;;;;;;;;5022546;28;20030;-57
2020/12/17 07:42:27;;;;;;;15.25;7.68;;;;;;;;;;5026429;28;20048;-61
2020/12/17 07:44:56;;;;;;;15.70;8.60;;;;;;;;;;5022012;28;20101;-60
2020/12/17 07:47:24;;;;;;;21.08;9.40;;;;;;;;;;5002824;28;20034;-59
2020/12/17 07:49:50;;;;;;;25.90;11.95;;;;;;;;;;5005329;28;20042;-58
2020/12/17 07:52:28;;;;;;;17.98;9.48;;;;;;;;;;5013713;28;20018;-56
2020/12/17 07:54:56;;;;;;;17.58;8.73;;;;;;;;;;5031829;28;20128;-57
2020/12/17 07:57:31;;;;;;;13.55;8.10;;;;;;;;;;5011638;28;20049;-57
2020/12/17 07:59:58;;;;;;;17.58;8.43;;;;;;;;;;5020601;28;20062;-58
2020/12/17 08:02:24;;;;;;;16.48;8.45;;;;;;;;;;5011081;28;20049;-60
2020/12/17 08:04:53;;;;;;;18.58;8.75;;;;;;;;;;5031541;28;20046;-58
2020/12/17 08:07:19;;;;;;;14.95;8.43;;;;;;;;;;5011423;28;20050;-58
2020/12/17 08:09:57;;;;;;;14.05;8.05;;;;;;;;;;5010171;28;20050;-60
2020/12/17 08:12:23;;;;;;;16.63;8.77;;;;;;;;;;5013347;28;20053;-58
2020/12/17 08:14:49;;;;;;;16.45;8.35;;;;;;;;;;5025077;28;20147;-58
2020/12/17 08:17:19;;;;;;;13.60;8.02;;;;;;;;;;5022102;28;20049;-59
2020/12/17 08:19:55;;;;;;;18.80;8.52;;;;;;;;;;5025190;28;20061;-60
2020/12/17 08:22:22;;;;;;;16.65;8.95;;;;;;;;;;5021860;28;20046;-59
2020/12/17 08:24:48;;;;;;;16.60;8.18;;;;;;;;;;5026594;28;20088;-61
2020/12/17 08:27:21;;;;;;;17.35;9.38;;;;;;;;;;5022911;28;20033;-63
2020/12/17 08:29:49;;;;;;;19.27;9.90;;;;;;;;;;5008916;28;20045;-59
2020/12/17 08:32:16;;;;;;;14.43;7.95;;;;;;;;;;5009014;28;20108;-57
2020/12/17 08:35:05;;;;;;;12.00;6.55;;;;;;;;;;5013636;28;20086;-58
2020/12/17 08:37:31;;;;;;;11.95;6.55;;;;;;;;;;5020637;28;20547;-58
2020/12/17 08:39:58;;;;;;;15.13;6.65;;;;;;;;;;5025664;28;20037;-58
2020/12/17 08:42:29;;;;;;;11.02;5.55;;;;;;;;;;5011984;28;20054;-59
2020/12/17 08:44:55;;;;;;;12.52;6.30;;;;;;;;;;5005433;28;20042;-57
2020/12/17 08:47:33;;;;;;;10.90;6.03;;;;;;;;;;5002504;28;20145;-60
2020/12/17 08:50:09;;;;;;;10.18;5.68;;;;;;;;;;5001723;28;20070;-59
2020/12/17 08:52:36;;;;;;;10.88;5.63;;;;;;;;;;4983665;28;20050;-59
2020/12/17 08:55:02;;;;;;;18.17;5.90;;;;;;;;;;5021174;28;20161;-57
2020/12/17 08:57:28;;;;;;;12.07;5.55;;;;;;;;;;5005177;28;20254;-60
2020/12/17 08:59:56;;;;;;;10.75;5.78;;;;;;;;;;5001011;28;20041;-60
2020/12/17 09:02:23;;;;;;;11.13;5.77;;;;;;;;;;5016812;28;20061;-59
2020/12/17 09:04:56;;;;;;;14.05;6.05;;;;;;;;;;5003685;28;20267;-58
2020/12/17 09:07:29;;;;;;;11.23;5.78;;;;;;;;;;5003640;28;20030;-59
2020/12/17 09:10:09;;;;;;;13.88;5.95;;;;;;;;;;5001453;28;20120;-61
2020/12/17 09:12:38;;;;;;;15.15;7.30;;;;;;;;;;5005653;28;20031;-60
2020/12/17 09:15:07;;;;;;;12.23;6.28;;;;;;;;;;4997556;28;20033;-62
2020/12/17 09:17:37;;;;;;;13.25;5.82;;;;;;;;;;5024496;28;20049;-59
2020/12/17 09:20:15;;;;;;;13.07;6.30;;;;;;;;;;4998295;28;20027;-58
2020/12/17 09:22:43;;;;;;;9.03;5.33;;;;;;;;;;5005877;28;20026;-58
2020/12/17 09:25:09;;;;;;;11.13;5.30;;;;;;;;;;5013044;28;20115;-59
2020/12/17 09:27:37;;;;;;;11.43;5.95;;;;;;;;;;5008929;28;20034;-60
2020/12/17 09:30:07;;;;;;;15.65;5.30;;;;;;;;;;5013168;28;20038;-58
2020/12/17 09:32:34;;;;;;;11.43;6.57;;;;;;;;;;5024178;28;20033;-61
2020/12/17 09:35:00;;;;;;;9.95;5.18;;;;;;;;;;5020544;28;20104;-58
2020/12/17 09:37:30;;;;;;;9.10;4.75;;;;;;;;;;5024738;28;20034;-59
2020/12/17 09:39:56;;;;;;;9.98;4.60;;;;;;;;;;5015478;28;20042;-57
2020/12/17 09:42:23;;;;;;;9.50;4.30;;;;;;;;;;5005347;28;20082;-61
2020/12/17 09:44:49;;;;;;;11.43;4.78;;;;;;;;;;5004818;28;20053;-57
2020/12/17 09:47:29;;;;;;;12.63;4.70;;;;;;;;;;5005699;28;20026;-55
2020/12/17 09:49:55;;;;;;;13.77;4.60;;;;;;;;;;5006276;28;20101;-58
2020/12/17 09:52:25;;;;;;;12.73;3.83;;;;;;;;;;4999535;28;20037;-59
2020/12/17 09:54:53;;;;;;;10.82;3.60;;;;;;;;;;5002421;28;20033;-61
2020/12/17 09:57:20;;;;;;;10.00;4.43;;;;;;;;;;5005791;28;20743;-58
2020/12/17 09:59:46;;;;;;;6.85;3.70;;;;;;;;;;5004763;28;20041;-60
2020/12/17 10:02:13;;;;;;;8.30;3.45;;;;;;;;;;5002485;28;20359;-58
2020/12/17 10:04:40;;;;;;;7.57;3.35;;;;;;;;;;5004412;28;20062;-57
2020/12/17 10:07:08;;;;;;;13.65;4.35;;;;;;;;;;5008287;28;20037;-61
2020/12/17 10:09:35;;;;;;;7.93;3.30;;;;;;;;;;5012380;28;20479;-59
2020/12/17 10:12:02;;;;;;;9.35;3.58;;;;;;;;;;5009128;28;20045;-58
2020/12/17 10:14:28;;;;;;;12.07;3.85;;;;;;;;;;5021361;28;20060;-55
2020/12/17 10:16:59;;;;;;;11.15;3.88;;;;;;;;;;5019995;28;20069;-58
2020/12/17 10:19:25;;;;;;;10.88;3.80;;;;;;;;;;5021584;28;20034;-60
2020/12/17 10:21:51;;;;;;;9.63;3.42;;;;;;;;;;5020900;28;20041;-59
2020/12/17 10:24:18;;;;;;;10.23;3.70;;;;;;;;;;5023891;28;20030;-57
2020/12/17 10:27:00;;;;;;;9.18;3.78;;;;;;;;;;5015246;28;20074;-58
2020/12/17 10:29:28;;;;;;;11.05;4.10;;;;;;;;;;5003613;28;20042;-58
2020/12/17 10:31:55;;;;;;;12.98;4.38;;;;;;;;;;5007962;28;20053;-58
2020/12/17 10:34:21;;;;;;;9.68;3.33;;;;;;;;;;5024461;28;20150;-60
2020/12/17 10:36:51;;;;;;;8.52;3.83;;;;;;;;;;5021267;28;20038;-60
2020/12/17 10:39:18;;;;;;;11.15;3.67;;;;;;;;;;5024523;28;20067;-60
2020/12/17 10:41:44;;;;;;;10.50;3.72;;;;;;;;;;5015894;28;20034;-58
2020/12/17 10:44:11;;;;;;;10.48;4.13;;;;;;;;;;5011080;28;20050;-57
2020/12/17 10:46:42;;;;;;;9.43;3.88;;;;;;;;;;5024640;28;20045;-59
2020/12/17 10:49:09;;;;;;;8.30;3.10;;;;;;;;;;5018884;28;20059;-59
2020/12/17 10:51:35;;;;;;;16.15;4.07;;;;;;;;;;5023703;28;20030;-59
2020/12/17 10:54:01;;;;;;;15.80;3.63;;;;;;;;;;5002084;28;20066;-57
2020/12/17 10:56:27;;;;;;;11.77;4.15;;;;;;;;;;5003537;28;20148;-62
2020/12/17 10:58:56;;;;;;;11.50;3.40;;;;;;;;;;5013335;28;20073;-57
2020/12/17 11:01:22;;;;;;;10.23;3.55;;;;;;;;;;5020711;28;20045;-58
2020/12/17 11:03:50;;;;;;;12.00;3.85;;;;;;;;;;5005192;28;20049;-57
2020/12/17 11:06:16;;;;;;;15.13;5.05;;;;;;;;;;5019550;28;20033;-58
2020/12/17 11:08:44;;;;;;;11.88;4.00;;;;;;;;;;5023000;28;20042;-59
2020/12/17 11:11:10;;;;;;;9.00;3.10;;;;;;;;;;5028102;28;20033;-61
2020/12/17 11:13:42;;;;;;;9.57;3.15;;;;;;;;;;5016622;28;20030;-58
2020/12/17 11:16:10;;;;;;;9.88;2.90;;;;;;;;;;4993115;28;20050;-57
2020/12/17 11:18:40;;;;;;;6.82;3.03;;;;;;;;;;4995390;28;20105;-59
2020/12/17 11:21:07;;;;;;;16.07;4.20;;;;;;;;;;5007798;28;20038;-58
2020/12/17 11:23:33;;;;;;;10.32;3.88;;;;;;;;;;5005192;28;20057;-58
2020/12/17 11:26:01;;;;;;;9.93;3.90;;;;;;;;;;5005552;28;20042;-60
2020/12/17 11:28:33;;;;;;;7.60;3.58;;;;;;;;;;5003617;28;20045;-58
2020/12/17 11:30:59;;;;;;;11.18;3.78;;;;;;;;;;5026056;28;20044;-60
2020/12/17 11:33:25;;;;;;;7.45;3.28;;;;;;;;;;5027792;28;20044;-58
2020/12/17 11:35:52;;;;;;;11.60;3.75;;;;;;;;;;5023251;28;20048;-60
2020/12/17 11:38:25;;;;;;;13.35;3.90;;;;;;;;;;5024446;28;20037;-61
2020/12/17 11:40:51;;;;;;;17.05;3.78;;;;;;;;;;5005108;28;20038;-59
2020/12/17 11:43:17;;;;;;;12.43;4.25;;;;;;;;;;5005281;28;20034;-59
2020/12/17 11:45:43;;;;;;;12.55;3.92;;;;;;;;;;5017390;28;20172;-58
2020/12/17 11:48:18;;;;;;;10.50;4.18;;;;;;;;;;5018451;28;20136;-59
2020/12/17 11:50:44;;;;;;;13.40;4.65;;;;;;;;;;5011212;28;20042;-59
2020/12/17 11:53:10;;;;;;;11.45;4.10;;;;;;;;;;5007485;28;20045;-57
2020/12/17 11:55:37;;;;;;;12.25;4.00;;;;;;;;;;5002187;28;20512;-60
2020/12/17 11:58:06;;;;;;;14.50;4.57;;;;;;;;;;5026476;28;20083;-57
2020/12/17 12:00:32;;;;;;;13.98;4.82;;;;;;;;;;5015486;28;20026;-60
2020/12/17 12:02:58;;;;;;;15.20;4.35;;;;;;;;;;5006906;28;20035;-58
2020/12/17 12:05:27;;;;;;;15.60;5.15;;;;;;;;;;5000037;28;20038;-58
2020/12/17 12:08:13;;;;;;;14.70;4.70;;;;;;;;;;5001775;28;20149;-59
2020/12/17 12:10:43;;;;;;;16.42;4.72;;;;;;;;;;5016190;28;20029;-57
2020/12/17 12:13:09;;;;;;;13.50;4.75;;;;;;;;;;4986173;28;20039;-58
2020/12/17 12:18:31;;;;;;;16.05;4.72;;;;;;;;;;5021592;28;20049;-58
2020/12/17 12:21:00;;;;;;;13.57;6.28;;;;;;;;;;5021400;28;20046;-60
2020/12/17 12:23:27;;;;;;;12.07;4.97;;;;;;;;;;5002158;28;20053;-58
2020/12/17 12:25:58;;;;;;;16.08;4.28;;;;;;;;;;5006685;28;20045;-59
2020/12/17 12:28:26;;;;;;;15.90;4.53;;;;;;;;;;4983357;28;20049;-58
2020/12/17 12:30:55;;;;;;;11.02;4.70;;;;;;;;;;4987951;28;20038;-59
2020/12/17 12:33:21;;;;;;;12.88;4.90;;;;;;;;;;5004600;28;20070;-60
2020/12/17 12:35:47;;;;;;;15.30;5.20;;;;;;;;;;5005390;28;20058;-59
2020/12/17 12:38:20;;;;;;;9.50;4.40;;;;;;;;;;4990538;28;20050;-58
2020/12/17 12:40:46;;;;;;;12.25;4.38;;;;;;;;;;5016664;28;20056;-59
2020/12/17 12:43:13;;;;;;;7.68;3.95;;;;;;;;;;5020220;28;20048;-58
2020/12/17 12:45:39;;;;;;;14.73;4.55;;;;;;;;;;5025278;28;20040;-60
2020/12/17 12:48:11;;;;;;;12.95;4.70;;;;;;;;;;5009557;28;20049;-60
2020/12/17 12:50:37;;;;;;;9.90;3.85;;;;;;;;;;4996756;28;20034;-60
2020/12/17 12:53:03;;;;;;;11.45;3.78;;;;;;;;;;5003327;28;20054;-59
2020/12/17 12:55:32;;;;;;;8.07;3.72;;;;;;;;;;5006529;28;20034;-59
2020/12/17 12:57:58;;;;;;;;;;;;;;;;;;5002165;28;20104;-58
2020/12/17 13:00:25;;;;;;;9.35;3.63;;;;;;;;;;5004405;28;19925;-58
2020/12/17 13:02:51;;;;;;;11.00;3.72;;;;;;;;;;5001915;28;20034;-61
2020/12/17 13:05:17;;;;;;;11.32;3.75;;;;;;;;;;5004916;28;20106;-59
2020/12/17 13:07:51;;;;;;;8.32;3.55;;;;;;;;;;5003346;28;20394;-59
2020/12/17 13:10:17;;;;;;;12.85;3.97;;;;;;;;;;5004066;28;20053;-58
2020/12/17 13:12:43;;;;;;;16.15;3.45;;;;;;;;;;5004076;28;20057;-58
2020/12/17 13:15:09;;;;;;;14.50;5.18;;;;;;;;;;5005143;28;20026;-60
2020/12/17 13:17:43;;;;;;;17.58;5.05;;;;;;;;;;5005983;28;20487;-57
2020/12/17 13:20:09;;;;;;;13.15;3.60;;;;;;;;;;5022673;28;20037;-59
2020/12/17 13:22:38;;;;;;;9.35;3.17;;;;;;;;;;5025161;28;20053;-60
2020/12/17 13:25:04;;;;;;;7.30;3.33;;;;;;;;;;5002500;28;20030;-58
2020/12/17 13:27:30;;;;;;;9.90;3.30;;;;;;;;;;5003779;28;20038;-59
2020/12/17 13:33:01;;;;;;;10.05;3.10;;;;;;;;;;5002177;28;20045;-60
2020/12/17 13:35:27;;;;;;;11.17;3.20;;;;;;;;;;5009453;28;20049;-60
2020/12/17 13:37:53;;;;;;;11.57;3.10;;;;;;;;;;5014051;28;20030;-61
2020/12/17 13:40:19;;;;;;;9.02;2.80;;;;;;;;;;5000373;28;20050;-62
2020/12/17 13:42:45;;;;;;;7.88;3.05;;;;;;;;;;5004122;28;20042;-56
2020/12/17 13:45:11;;;;;;;18.02;3.88;;;;;;;;;;4999864;28;20050;-57
2020/12/17 13:47:37;;;;;;;13.45;3.40;;;;;;;;;;5004190;28;20060;-58
2020/12/17 13:50:04;;;;;;;9.75;2.92;;;;;;;;;;5007707;28;20050;-60
2020/12/17 13:52:31;;;;;;;14.52;2.72;;;;;;;;;;5023711;28;20034;-60
2020/12/17 13:54:57;;;;;;;10.73;2.60;;;;;;;;;;5021663;28;20042;-56
2020/12/17 13:57:23;;;;;;;11.48;2.45;;;;;;;;;;5025171;28;20036;-59
2020/12/17 13:59:49;;;;;;;7.70;2.15;;;;;;;;;;5017855;28;20052;-58
2020/12/17 14:02:15;;;;;;;6.18;2.10;;;;;;;;;;4997041;28;20060;-58
2020/12/17 14:04:41;;;;;;;8.35;2.20;;;;;;;;;;5002145;28;20034;-56
2020/12/17 14:07:18;;;;;;;6.70;2.47;;;;;;;;;;5024093;28;20052;-58
2020/12/17 14:09:46;;;;;;;7.72;2.75;;;;;;;;;;5023263;28;20040;-57
2020/12/17 14:12:12;;;;;;;8.27;2.17;;;;;;;;;;5023055;28;20034;-57
2020/12/17 14:14:38;;;;;;;8.93;2.13;;;;;;;;;;5023523;28;20409;-59
2020/12/17 14:17:14;;;;;;;7.88;2.35;;;;;;;;;;5005435;28;20034;-57
2020/12/17 14:19:40;;;;;;;11.95;2.10;;;;;;;;;;5004177;28;20112;-58
2020/12/17 14:22:06;;;;;;;7.18;2.08;;;;;;;;;;5002576;28;20038;-58
2020/12/17 14:24:33;;;;;;;5.28;2.00;;;;;;;;;;5005390;28;20057;-59
2020/12/17 14:27:07;;;;;;;8.52;2.38;;;;;;;;;;5001187;28;20038;-56
2020/12/17 14:29:41;;;;;;;8.88;1.80;;;;;;;;;;5001825;28;20064;-58
2020/12/17 14:32:07;;;;;;;7.00;2.25;;;;;;;;;;5011514;28;20098;-58
2020/12/17 14:34:36;;;;;;;6.30;1.83;;;;;;;;;;5007079;28;20045;-57
2020/12/17 14:37:09;;;;;;;11.65;1.95;;;;;;;;;;5001348;28;20061;-60
2020/12/17 14:39:36;;;;;;;7.97;1.83;;;;;;;;;;4997308;28;20033;-60
2020/12/17 14:42:03;;;;;;;7.03;1.98;;;;;;;;;;5014806;28;20050;-61
2020/12/17 14:44:29;;;;;;;5.00;1.80;;;;;;;;;;5024518;28;20061;-62
2020/12/17 14:46:55;;;;;;;6.78;2.13;;;;;;;;;;5015121;28;20084;-60
2020/12/17 14:49:26;;;;;;;14.13;2.60;;;;;;;;;;5002932;28;20034;-60
2020/12/17 14:51:53;;;;;;;8.32;2.22;;;;;;;;;;5000726;28;20034;-58
2020/12/17 14:54:20;;;;;;;6.20;1.88;;;;;;;;;;5005335;28;20042;-62
2020/12/17 14:56:54;;;;;;;10.80;2.05;;;;;;;;;;5003041;28;20052;-60
2020/12/17 14:59:20;;;;;;;4.97;1.75;;;;;;;;;;5024213;28;20062;-63